THY7K LTFM-LROP
Flight info
| Callsign | THY7K |
|---|---|
| Flight time | 0h 49m |
| Altitude | 36000 |
| Route | IBLAX1E/36 IBLAX P727 BGS L622 GONGO DCT KOMAN DCT OBUGA |
| Aircraft | B738/M-SDE2E3FGHIRWXY/LB1 |
Departure
| Time | 2026-05-04 20:51 |
|---|---|
| Airport | İstanbul Airport (LTFM) |
Arrival
| Time | 2026-05-04 21:40 |
|---|---|
| Airport | Bucharest Henri Coandă International Airport (LROP) |
| Time | Latitude | Longitude | Altitude | Speed | Heading |
|---|---|---|---|---|---|
| 2026-05-04 20:10 | 41.26536 | 28.74981 | 333 ft | 0 kts | 287° |
| 2026-05-04 20:37 | 41.26535 | 28.74986 | 333 ft | 2 kts | 286° |
| 2026-05-04 20:37 | 41.26530 | 28.75011 | 333 ft | 3 kts | 279° |
| 2026-05-04 20:38 | 41.26528 | 28.75037 | 332 ft | 3 kts | 270° |
| 2026-05-04 20:38 | 41.26529 | 28.75064 | 333 ft | 3 kts | 257° |
| 2026-05-04 20:38 | 41.26535 | 28.75089 | 331 ft | 3 kts | 239° |
| 2026-05-04 20:38 | 41.26547 | 28.75109 | 333 ft | 3 kts | 210° |
| 2026-05-04 20:39 | 41.26556 | 28.75115 | 328 ft | 0 kts | 197° |
| 2026-05-04 20:44 | 41.26545 | 28.75110 | 328 ft | 5 kts | 200° |
| 2026-05-04 20:44 | 41.26511 | 28.75096 | 333 ft | 4 kts | 197° |
| 2026-05-04 20:44 | 41.26486 | 28.75086 | 331 ft | 4 kts | 197° |
| 2026-05-04 20:45 | 41.26455 | 28.75073 | 332 ft | 5 kts | 197° |
| 2026-05-04 20:45 | 41.26412 | 28.75056 | 330 ft | 7 kts | 196° |
| 2026-05-04 20:45 | 41.26361 | 28.75036 | 333 ft | 8 kts | 197° |
| 2026-05-04 20:45 | 41.26310 | 28.75015 | 333 ft | 7 kts | 197° |
| 2026-05-04 20:46 | 41.26261 | 28.75024 | 331 ft | 7 kts | 149° |
| 2026-05-04 20:46 | 41.26244 | 28.75082 | 333 ft | 7 kts | 94° |
| 2026-05-04 20:46 | 41.26244 | 28.75148 | 333 ft | 7 kts | 89° |
| 2026-05-04 20:46 | 41.26245 | 28.75210 | 333 ft | 7 kts | 89° |
| 2026-05-04 20:47 | 41.26246 | 28.75259 | 333 ft | 4 kts | 89° |
| 2026-05-04 20:47 | 41.26246 | 28.75291 | 333 ft | 3 kts | 89° |
| 2026-05-04 20:47 | 41.26247 | 28.75322 | 333 ft | 3 kts | 89° |
| 2026-05-04 20:47 | 41.26247 | 28.75353 | 333 ft | 4 kts | 89° |
| 2026-05-04 20:48 | 41.26248 | 28.75407 | 333 ft | 7 kts | 89° |
| 2026-05-04 20:48 | 41.26249 | 28.75474 | 333 ft | 6 kts | 89° |
| 2026-05-04 20:48 | 41.26249 | 28.75504 | 333 ft | 2 kts | 89° |
| 2026-05-04 20:48 | 41.26249 | 28.75520 | 333 ft | 2 kts | 89° |
| 2026-05-04 20:49 | 41.26250 | 28.75581 | 333 ft | 8 kts | 88° |
| 2026-05-04 20:49 | 41.26251 | 28.75641 | 333 ft | 4 kts | 89° |
| 2026-05-04 20:49 | 41.26258 | 28.75662 | 329 ft | 2 kts | 42° |
| 2026-05-04 20:49 | 41.26274 | 28.75664 | 333 ft | 2 kts | 360° |
| 2026-05-04 20:50 | 41.26290 | 28.75664 | 329 ft | 2 kts | 359° |
| 2026-05-04 20:50 | 41.26296 | 28.75664 | 329 ft | 1 kts | 359° |
| 2026-05-04 20:50 | 41.26516 | 28.75661 | 332 ft | 75 kts | 359° |
| 2026-05-04 20:50 | 41.27326 | 28.75643 | 331 ft | 153 kts | 358° |
| 2026-05-04 20:51 | 41.28487 | 28.75637 | 1039 ft | 166 kts | 359° |
| 2026-05-04 20:51 | 41.29546 | 28.75797 | 2434 ft | 152 kts | 14° |
| 2026-05-04 20:51 | 41.30433 | 28.76714 | 3287 ft | 180 kts | 49° |
| 2026-05-04 20:51 | 41.31409 | 28.77911 | 3628 ft | 206 kts | 20° |
| 2026-05-04 20:52 | 41.32765 | 28.78576 | 4377 ft | 214 kts | 23° |
| 2026-05-04 20:52 | 41.34098 | 28.79472 | 5376 ft | 214 kts | 26° |
| 2026-05-04 20:52 | 41.35429 | 28.80426 | 6198 ft | 227 kts | 27° |
| 2026-05-04 20:52 | 41.36848 | 28.81458 | 7057 ft | 236 kts | 27° |
| 2026-05-04 20:53 | 41.38375 | 28.82282 | 8055 ft | 240 kts | 11° |
| 2026-05-04 20:53 | 41.40053 | 28.82414 | 9139 ft | 245 kts | 360° |
| 2026-05-04 20:53 | 41.41774 | 28.82229 | 10119 ft | 251 kts | 358° |
| 2026-05-04 20:53 | 41.43580 | 28.81985 | 10598 ft | 275 kts | 357° |
| 2026-05-04 20:54 | 41.45592 | 28.81712 | 10823 ft | 305 kts | 357° |
| 2026-05-04 20:54 | 41.47759 | 28.81423 | 11396 ft | 319 kts | 357° |
| 2026-05-04 20:54 | 41.49998 | 28.81129 | 12237 ft | 325 kts | 357° |
| 2026-05-04 20:54 | 41.52264 | 28.80840 | 13131 ft | 329 kts | 357° |
| 2026-05-04 20:55 | 41.54540 | 28.80555 | 13973 ft | 335 kts | 358° |
| 2026-05-04 20:55 | 41.56880 | 28.80266 | 14749 ft | 339 kts | 358° |
| 2026-05-04 20:55 | 41.59242 | 28.79949 | 15577 ft | 343 kts | 354° |
| 2026-05-04 20:55 | 41.61536 | 28.78895 | 16322 ft | 356 kts | 336° |
| 2026-05-04 20:56 | 41.63587 | 28.76927 | 17060 ft | 371 kts | 322° |
| 2026-05-04 20:56 | 41.65435 | 28.74464 | 17831 ft | 377 kts | 320° |
| 2026-05-04 20:56 | 41.67234 | 28.71947 | 18492 ft | 382 kts | 319° |
| 2026-05-04 20:56 | 41.69075 | 28.69345 | 19126 ft | 386 kts | 319° |
| 2026-05-04 20:57 | 41.70930 | 28.66728 | 19813 ft | 388 kts | 319° |
| 2026-05-04 20:57 | 41.72804 | 28.64100 | 20488 ft | 391 kts | 319° |
| 2026-05-04 20:57 | 41.74696 | 28.61463 | 21121 ft | 394 kts | 320° |
| 2026-05-04 20:57 | 41.76608 | 28.58807 | 21738 ft | 398 kts | 320° |
| 2026-05-04 20:58 | 41.78540 | 28.56127 | 22349 ft | 401 kts | 320° |
| 2026-05-04 20:58 | 41.80487 | 28.53427 | 22949 ft | 404 kts | 320° |
| 2026-05-04 20:58 | 41.82448 | 28.50705 | 23540 ft | 408 kts | 320° |
| 2026-05-04 20:58 | 41.84432 | 28.47951 | 23947 ft | 413 kts | 319° |
| 2026-05-04 20:59 | 41.86433 | 28.45169 | 24393 ft | 416 kts | 319° |
| 2026-05-04 20:59 | 41.88448 | 28.42362 | 24905 ft | 418 kts | 319° |
| 2026-05-04 20:59 | 41.90442 | 28.39581 | 25401 ft | 420 kts | 319° |
| 2026-05-04 20:59 | 41.92474 | 28.36745 | 25863 ft | 422 kts | 319° |
| 2026-05-04 21:00 | 41.94524 | 28.33884 | 26289 ft | 425 kts | 319° |
| 2026-05-04 21:00 | 41.96578 | 28.31014 | 26834 ft | 425 kts | 319° |
| 2026-05-04 21:00 | 41.98603 | 28.28131 | 27515 ft | 423 kts | 315° |
| 2026-05-04 21:00 | 42.00387 | 28.24973 | 28021 ft | 427 kts | 309° |
| 2026-05-04 21:01 | 42.03643 | 28.18323 | 28053 ft | 426 kts | 308° |
| 2026-05-04 21:01 | 42.06896 | 28.11622 | 28061 ft | 427 kts | 308° |
| 2026-05-04 21:02 | 42.10208 | 28.04974 | 28058 ft | 427 kts | 309° |
| 2026-05-04 21:02 | 42.13479 | 27.98456 | 28055 ft | 427 kts | 308° |
| 2026-05-04 21:03 | 42.16780 | 27.91861 | 28045 ft | 414 kts | 308° |
| 2026-05-04 21:03 | 42.18360 | 27.88694 | 28046 ft | 403 kts | 308° |
| 2026-05-04 21:03 | 42.19923 | 27.85565 | 28055 ft | 401 kts | 308° |
| 2026-05-04 21:04 | 42.23575 | 27.79982 | 28069 ft | 395 kts | 324° |
| 2026-05-04 21:04 | 42.28212 | 27.76095 | 28066 ft | 392 kts | 335° |
| 2026-05-04 21:05 | 42.33050 | 27.72630 | 28076 ft | 397 kts | 335° |
| 2026-05-04 21:05 | 42.35492 | 27.70872 | 28083 ft | 409 kts | 334° |
| 2026-05-04 21:05 | 42.38035 | 27.69027 | 28078 ft | 418 kts | 334° |
| 2026-05-04 21:06 | 42.43172 | 27.65260 | 28062 ft | 418 kts | 334° |
| 2026-05-04 21:06 | 42.48275 | 27.61498 | 28058 ft | 416 kts | 334° |
| 2026-05-04 21:07 | 42.53328 | 27.57771 | 28078 ft | 415 kts | 334° |
| 2026-05-04 21:07 | 42.58407 | 27.54011 | 28077 ft | 415 kts | 333° |
| 2026-05-04 21:08 | 42.63211 | 27.49591 | 28080 ft | 418 kts | 326° |
| 2026-05-04 21:08 | 42.67865 | 27.44915 | 28054 ft | 418 kts | 326° |
| 2026-05-04 21:09 | 42.72562 | 27.40228 | 28077 ft | 419 kts | 326° |
| 2026-05-04 21:09 | 42.77293 | 27.35550 | 28081 ft | 421 kts | 326° |
| 2026-05-04 21:10 | 42.82046 | 27.30862 | 28072 ft | 422 kts | 326° |
| 2026-05-04 21:10 | 42.86799 | 27.26166 | 28082 ft | 421 kts | 326° |
| 2026-05-04 21:11 | 42.91512 | 27.21499 | 28078 ft | 421 kts | 326° |
| 2026-05-04 21:11 | 42.96247 | 27.16801 | 28077 ft | 420 kts | 326° |
| 2026-05-04 21:12 | 43.00978 | 27.12097 | 28081 ft | 420 kts | 326° |
| 2026-05-04 21:12 | 43.05706 | 27.07388 | 28087 ft | 420 kts | 325° |
| 2026-05-04 21:13 | 43.10410 | 27.02699 | 28070 ft | 420 kts | 326° |
| 2026-05-04 21:13 | 43.15193 | 26.98277 | 28079 ft | 419 kts | 328° |
| 2026-05-04 21:14 | 43.20082 | 26.93913 | 28072 ft | 419 kts | 328° |
| 2026-05-04 21:14 | 43.24962 | 26.89519 | 28073 ft | 419 kts | 327° |
| 2026-05-04 21:15 | 43.29824 | 26.85098 | 28064 ft | 419 kts | 327° |
| 2026-05-04 21:15 | 43.34657 | 26.80682 | 28076 ft | 419 kts | 327° |
| 2026-05-04 21:16 | 43.39518 | 26.76231 | 28071 ft | 419 kts | 327° |
| 2026-05-04 21:16 | 43.44367 | 26.71782 | 28065 ft | 419 kts | 327° |
| 2026-05-04 21:17 | 43.49216 | 26.67324 | 28061 ft | 419 kts | 326° |
| 2026-05-04 21:17 | 43.54047 | 26.62875 | 28048 ft | 411 kts | 326° |
| 2026-05-04 21:18 | 43.56363 | 26.60738 | 27873 ft | 400 kts | 326° |
| 2026-05-04 21:18 | 43.58644 | 26.58631 | 27547 ft | 390 kts | 326° |
| 2026-05-04 21:18 | 43.60882 | 26.56563 | 27127 ft | 384 kts | 326° |
| 2026-05-04 21:18 | 43.63088 | 26.54523 | 26676 ft | 379 kts | 326° |
| 2026-05-04 21:19 | 43.65264 | 26.52509 | 26250 ft | 374 kts | 327° |
| 2026-05-04 21:19 | 43.67422 | 26.50509 | 25826 ft | 370 kts | 327° |
| 2026-05-04 21:19 | 43.69545 | 26.48540 | 25401 ft | 366 kts | 327° |
| 2026-05-04 21:19 | 43.71619 | 26.46615 | 24980 ft | 362 kts | 326° |
| 2026-05-04 21:20 | 43.73703 | 26.44679 | 24571 ft | 359 kts | 326° |
| 2026-05-04 21:20 | 43.75767 | 26.42760 | 24165 ft | 356 kts | 326° |
| 2026-05-04 21:20 | 43.77820 | 26.40849 | 23763 ft | 354 kts | 326° |
| 2026-05-04 21:20 | 43.79862 | 26.38947 | 23289 ft | 354 kts | 327° |
| 2026-05-04 21:21 | 43.81901 | 26.37046 | 22846 ft | 354 kts | 327° |
| 2026-05-04 21:21 | 43.83970 | 26.35117 | 22425 ft | 362 kts | 327° |
| 2026-05-04 21:21 | 43.86073 | 26.33152 | 21986 ft | 363 kts | 327° |
| 2026-05-04 21:21 | 43.88166 | 26.31196 | 21546 ft | 359 kts | 327° |
| 2026-05-04 21:22 | 43.90220 | 26.29274 | 21130 ft | 354 kts | 328° |
| 2026-05-04 21:22 | 43.92252 | 26.27371 | 20717 ft | 350 kts | 328° |
| 2026-05-04 21:22 | 43.94232 | 26.25517 | 20318 ft | 346 kts | 328° |
| 2026-05-04 21:22 | 43.96218 | 26.23655 | 19918 ft | 342 kts | 328° |
| 2026-05-04 21:23 | 43.98184 | 26.21809 | 19523 ft | 339 kts | 329° |
| 2026-05-04 21:23 | 44.00115 | 26.19958 | 19139 ft | 337 kts | 328° |
| 2026-05-04 21:23 | 44.02024 | 26.18090 | 18754 ft | 334 kts | 328° |
| 2026-05-04 21:23 | 44.03922 | 26.16227 | 18375 ft | 333 kts | 328° |
| 2026-05-04 21:24 | 44.05826 | 26.14365 | 17927 ft | 334 kts | 329° |
| 2026-05-04 21:24 | 44.07731 | 26.12503 | 17505 ft | 337 kts | 329° |
| 2026-05-04 21:24 | 44.09652 | 26.10579 | 17091 ft | 345 kts | 324° |
| 2026-05-04 21:24 | 44.11183 | 26.07972 | 16681 ft | 354 kts | 302° |
| 2026-05-04 21:25 | 44.12077 | 26.04828 | 16299 ft | 353 kts | 292° |
| 2026-05-04 21:25 | 44.12818 | 26.01583 | 15905 ft | 349 kts | 291° |
| 2026-05-04 21:25 | 44.13502 | 25.98455 | 15527 ft | 346 kts | 291° |
| 2026-05-04 21:25 | 44.14202 | 25.95261 | 15143 ft | 343 kts | 291° |
| 2026-05-04 21:26 | 44.14904 | 25.92101 | 14766 ft | 340 kts | 291° |
| 2026-05-04 21:26 | 44.15610 | 25.88955 | 14387 ft | 338 kts | 292° |
| 2026-05-04 21:26 | 44.16305 | 25.85887 | 14015 ft | 335 kts | 292° |
| 2026-05-04 21:26 | 44.17007 | 25.82796 | 13615 ft | 333 kts | 292° |
| 2026-05-04 21:27 | 44.17708 | 25.79717 | 13204 ft | 331 kts | 292° |
| 2026-05-04 21:27 | 44.18167 | 25.77699 | 12948 ft | 329 kts | 292° |
| 2026-05-04 21:27 | 44.18856 | 25.74671 | 12557 ft | 327 kts | 292° |
| 2026-05-04 21:27 | 44.19761 | 25.70674 | 12042 ft | 323 kts | 292° |
| 2026-05-04 21:28 | 44.20433 | 25.67702 | 11690 ft | 320 kts | 292° |
| 2026-05-04 21:28 | 44.21102 | 25.64751 | 11346 ft | 317 kts | 292° |
| 2026-05-04 21:28 | 44.21549 | 25.62775 | 11121 ft | 315 kts | 292° |
| 2026-05-04 21:28 | 44.22197 | 25.59909 | 10790 ft | 312 kts | 292° |
| 2026-05-04 21:29 | 44.22844 | 25.57039 | 10575 ft | 305 kts | 293° |
| 2026-05-04 21:29 | 44.23618 | 25.54352 | 10442 ft | 293 kts | 310° |
| 2026-05-04 21:29 | 44.25028 | 25.52469 | 10344 ft | 276 kts | 334° |
| 2026-05-04 21:29 | 44.26775 | 25.51443 | 10251 ft | 270 kts | 352° |
| 2026-05-04 21:30 | 44.28604 | 25.51089 | 10155 ft | 260 kts | 358° |
| 2026-05-04 21:30 | 44.30379 | 25.50830 | 9987 ft | 253 kts | 358° |
| 2026-05-04 21:30 | 44.32125 | 25.50572 | 9716 ft | 250 kts | 358° |
| 2026-05-04 21:30 | 44.33843 | 25.50310 | 9440 ft | 247 kts | 358° |
| 2026-05-04 21:31 | 44.37238 | 25.49785 | 8878 ft | 243 kts | 358° |
| 2026-05-04 21:31 | 44.38920 | 25.49522 | 8592 ft | 242 kts | 356° |
| 2026-05-04 21:31 | 44.40563 | 25.49263 | 8327 ft | 240 kts | 356° |
| 2026-05-04 21:32 | 44.42213 | 25.49002 | 8068 ft | 238 kts | 356° |
| 2026-05-04 21:32 | 44.43869 | 25.48741 | 7812 ft | 242 kts | 356° |
| 2026-05-04 21:32 | 44.45577 | 25.48472 | 7678 ft | 251 kts | 356° |
| 2026-05-04 21:32 | 44.47341 | 25.48193 | 7525 ft | 258 kts | 356° |
| 2026-05-04 21:33 | 44.49124 | 25.48285 | 7384 ft | 257 kts | 17° |
| 2026-05-04 21:33 | 44.50676 | 25.49479 | 7247 ft | 257 kts | 40° |
| 2026-05-04 21:33 | 44.51795 | 25.51474 | 6958 ft | 267 kts | 60° |
| 2026-05-04 21:33 | 44.52310 | 25.53979 | 6673 ft | 270 kts | 78° |
| 2026-05-04 21:34 | 44.52524 | 25.56584 | 6379 ft | 267 kts | 79° |
| 2026-05-04 21:34 | 44.52711 | 25.59110 | 6077 ft | 265 kts | 80° |
| 2026-05-04 21:34 | 44.52896 | 25.61658 | 5796 ft | 261 kts | 80° |
| 2026-05-04 21:34 | 44.53089 | 25.64178 | 5515 ft | 258 kts | 80° |
| 2026-05-04 21:35 | 44.53284 | 25.66670 | 5243 ft | 256 kts | 80° |
| 2026-05-04 21:35 | 44.53480 | 25.69139 | 4965 ft | 254 kts | 80° |
| 2026-05-04 21:35 | 44.53674 | 25.71599 | 4697 ft | 253 kts | 81° |
| 2026-05-04 21:35 | 44.53869 | 25.74057 | 4411 ft | 254 kts | 81° |
| 2026-05-04 21:36 | 44.54064 | 25.76533 | 4085 ft | 257 kts | 81° |
| 2026-05-04 21:36 | 44.54259 | 25.79032 | 3778 ft | 258 kts | 81° |
| 2026-05-04 21:36 | 44.54455 | 25.81534 | 3461 ft | 254 kts | 82° |
| 2026-05-04 21:36 | 44.54643 | 25.83944 | 3167 ft | 244 kts | 82° |
| 2026-05-04 21:37 | 44.54823 | 25.86262 | 2919 ft | 235 kts | 82° |
| 2026-05-04 21:37 | 44.54998 | 25.88514 | 2668 ft | 231 kts | 82° |
| 2026-05-04 21:37 | 44.55175 | 25.90735 | 2516 ft | 229 kts | 81° |
| 2026-05-04 21:37 | 44.55364 | 25.92885 | 2373 ft | 223 kts | 82° |
| 2026-05-04 21:38 | 44.55529 | 25.95053 | 2134 ft | 220 kts | 82° |
| 2026-05-04 21:38 | 44.55686 | 25.97174 | 1858 ft | 216 kts | 82° |
| 2026-05-04 21:38 | 44.55836 | 25.99189 | 1550 ft | 204 kts | 82° |
| 2026-05-04 21:38 | 44.55976 | 26.01091 | 1297 ft | 187 kts | 82° |
| 2026-05-04 21:39 | 44.56105 | 26.02822 | 1068 ft | 167 kts | 83° |
| 2026-05-04 21:39 | 44.56219 | 26.04344 | 829 ft | 148 kts | 83° |
| 2026-05-04 21:39 | 44.56327 | 26.05754 | 637 ft | 146 kts | 82° |
| 2026-05-04 21:39 | 44.56434 | 26.07186 | 431 ft | 149 kts | 83° |
| 2026-05-04 21:40 | 44.56539 | 26.08609 | 325 ft | 140 kts | 83° |
| 2026-05-04 21:40 | 44.56629 | 26.09819 | 318 ft | 105 kts | 84° |
| 2026-05-04 21:40 | 44.56688 | 26.10591 | 318 ft | 34 kts | 84° |
| 2026-05-04 21:40 | 44.56745 | 26.10756 | 319 ft | 15 kts | 11° |
| 2026-05-04 21:41 | 44.56844 | 26.10751 | 323 ft | 14 kts | 348° |
| 2026-05-04 21:41 | 44.56937 | 26.10737 | 323 ft | 13 kts | 354° |
| 2026-05-04 21:41 | 44.57015 | 26.10680 | 327 ft | 13 kts | 310° |
| 2026-05-04 21:41 | 44.57059 | 26.10573 | 326 ft | 13 kts | 290° |
| 2026-05-04 21:42 | 44.57062 | 26.10455 | 325 ft | 12 kts | 261° |
| 2026-05-04 21:42 | 44.57053 | 26.10338 | 324 ft | 12 kts | 263° |
| 2026-05-04 21:42 | 44.57044 | 26.10224 | 326 ft | 12 kts | 263° |
| 2026-05-04 21:42 | 44.57035 | 26.10113 | 324 ft | 11 kts | 263° |
| 2026-05-04 21:43 | 44.57026 | 26.10005 | 327 ft | 11 kts | 264° |
| 2026-05-04 21:43 | 44.57019 | 26.09900 | 324 ft | 11 kts | 263° |
| 2026-05-04 21:43 | 44.57012 | 26.09798 | 327 ft | 10 kts | 266° |
| 2026-05-04 21:43 | 44.57006 | 26.09699 | 325 ft | 10 kts | 263° |
| 2026-05-04 21:44 | 44.56998 | 26.09603 | 327 ft | 10 kts | 263° |
| 2026-05-04 21:44 | 44.56990 | 26.09510 | 323 ft | 10 kts | 264° |
| 2026-05-04 21:44 | 44.56983 | 26.09418 | 327 ft | 9 kts | 263° |
| 2026-05-04 21:44 | 44.56977 | 26.09330 | 323 ft | 9 kts | 264° |
| 2026-05-04 21:45 | 44.56971 | 26.09243 | 325 ft | 9 kts | 264° |
| 2026-05-04 21:45 | 44.56964 | 26.09160 | 327 ft | 9 kts | 264° |
| 2026-05-04 21:45 | 44.56959 | 26.09078 | 327 ft | 9 kts | 263° |
| 2026-05-04 21:45 | 44.56950 | 26.08977 | 327 ft | 13 kts | 264° |
| 2026-05-04 21:46 | 44.56939 | 26.08835 | 326 ft | 15 kts | 264° |
| 2026-05-04 21:46 | 44.56929 | 26.08691 | 325 ft | 14 kts | 262° |
| 2026-05-04 21:46 | 44.56921 | 26.08585 | 325 ft | 7 kts | 282° |
| 2026-05-04 21:46 | 44.56956 | 26.08542 | 326 ft | 7 kts | 344° |
| 2026-05-04 21:47 | 44.57004 | 26.08532 | 326 ft | 7 kts | 355° |
| 2026-05-04 21:47 | 44.57043 | 26.08526 | 325 ft | 0 kts | 353° |
| 2026-05-04 21:47 | 44.57044 | 26.08526 | 324 ft | 0 kts | 353° |
| 2026-05-04 21:47 | 44.57071 | 26.08522 | 325 ft | 10 kts | 353° |
| 2026-05-04 21:48 | 44.57148 | 26.08510 | 324 ft | 11 kts | 354° |
| 2026-05-04 21:48 | 44.57213 | 26.08491 | 326 ft | 8 kts | 322° |
| 2026-05-04 21:48 | 44.57221 | 26.08417 | 324 ft | 8 kts | 263° |
| 2026-05-04 21:48 | 44.57213 | 26.08342 | 326 ft | 8 kts | 261° |
| 2026-05-04 21:49 | 44.57204 | 26.08269 | 327 ft | 7 kts | 259° |
| 2026-05-04 21:49 | 44.57195 | 26.08199 | 326 ft | 7 kts | 260° |
| 2026-05-04 21:49 | 44.57194 | 26.08138 | 324 ft | 1 kts | 267° |
| 2026-05-04 21:49 | 44.57191 | 26.08119 | 325 ft | 3 kts | 242° |
| 2026-05-04 21:50 | 44.57168 | 26.08112 | 326 ft | 4 kts | 178° |
| 2026-05-04 21:50 | 44.57152 | 26.08114 | 324 ft | 1 kts | 175° |
| 2026-05-04 21:50 | 44.57150 | 26.08114 | 324 ft | 0 kts | 175° |